Map

Track Data

SID SEASON NUMBER BASIN SUBBASIN NAME ISO_TIME NATURE LAT LON WMO_WIND WMO_PRES WMO_AGENCY TRACK_TYPE DIST2LAND LANDFALL IFLAG USA_AGENCY USA_ATCF_ID USA_LAT USA_LON USA_RECORD USA_STATUS USA_WIND USA_PRES USA_SSHS USA_R34_NE USA_R34_SE USA_R34_SW USA_R34_NW USA_R50_NE USA_R50_SE USA_R50_SW USA_R50_NW USA_R64_NE USA_R64_SE USA_R64_SW USA_R64_NW USA_POCI USA_ROCI USA_RMW USA_EYE TOKYO_LAT TOKYO_LON TOKYO_GRADE TOKYO_WIND TOKYO_PRES TOKYO_R50_DIR TOKYO_R50_LONG TOKYO_R50_SHORT TOKYO_R30_DIR TOKYO_R30_LONG TOKYO_R30_SHORT TOKYO_LAND CMA_LAT CMA_LON CMA_CAT CMA_WIND CMA_PRES HKO_LAT HKO_LON HKO_CAT HKO_WIND HKO_PRES NEWDELHI_LAT NEWDELHI_LON NEWDELHI_GRADE NEWDELHI_WIND NEWDELHI_PRES NEWDELHI_CI NEWDELHI_DP NEWDELHI_POCI REUNION_LAT REUNION_LON REUNION_TYPE REUNION_WIND REUNION_PRES REUNION_TNUM REUNION_CI REUNION_RMW REUNION_R34_NE REUNION_R34_SE REUNION_R34_SW REUNION_R34_NW REUNION_R50_NE REUNION_R50_SE REUNION_R50_SW REUNION_R50_NW REUNION_R64_NE REUNION_R64_SE REUNION_R64_SW REUNION_R64_NW BOM_LAT BOM_LON BOM_TYPE BOM_WIND BOM_PRES BOM_TNUM BOM_CI BOM_RMW BOM_R34_NE BOM_R34_SE BOM_R34_SW BOM_R34_NW BOM_R50_NE BOM_R50_SE BOM_R50_SW BOM_R50_NW BOM_R64_NE BOM_R64_SE BOM_R64_SW BOM_R64_NW BOM_ROCI BOM_POCI BOM_EYE BOM_POS_METHOD BOM_PRES_METHOD NADI_LAT NADI_LON NADI_CAT NADI_WIND NADI_PRES WELLINGTON_LAT WELLINGTON_LON WELLINGTON_WIND WELLINGTON_PRES DS824_LAT DS824_LON DS824_STAGE DS824_WIND DS824_PRES TD9636_LAT TD9636_LON TD9636_STAGE TD9636_WIND TD9636_PRES TD9635_LAT TD9635_LON TD9635_WIND TD9635_PRES TD9635_ROCI NEUMANN_LAT NEUMANN_LON NEUMANN_CLASS NEUMANN_WIND NEUMANN_PRES MLC_LAT MLC_LON MLC_CLASS MLC_WIND MLC_PRES USA_GUST BOM_GUST BOM_GUST_PER REUNION_GUST REUNION_GUST_PER USA_SEAHGT USA_SEARAD_NE USA_SEARAD_SE USA_SEARAD_SW USA_SEARAD_NW STORM_SPEED STORM_DIR
1965117S08062 1965 38 SI MM ROSE 1965-04-27 06:00:00 TS -7.90000 62.0000 main 1441 1431 O________OO___ jtwc_sh SH421965 -7.90000 62.0000 -1 -7.90000 62.0000 TC 25 -7.90000 62.0000 7 3 0
1965117S08062 1965 38 SI MM ROSE 1965-04-27 09:00:00 TS -8.05354 62.0000 main 1420 1410 P________PP___ SH421965 -8.04750 62.0000 -1 -8.04750 62.0000 TC 25 -8.06563 62.0000 7 3 176
1965117S08062 1965 38 SI MM ROSE 1965-04-27 12:00:00 TS -8.20833 62.0000 main 1410 1389 O________OP___ jtwc_sh SH421965 -8.20000 62.0000 -1 -8.20000 62.0000 TC 25 -8.22500 62.0000 7 3 178
1965117S08062 1965 38 SI MM ROSE 1965-04-27 15:00:00 TS -8.36229 62.0000 main 1389 1378 P________PP___ SH421965 -8.35750 62.0000 -1 -8.35750 62.0000 TC 25 -8.37188 62.0000 7 3 0
1965117S08062 1965 38 SI MM ROSE 1965-04-27 18:00:00 TS -8.50000 62.0000 main 1378 1367 O________OO___ jtwc_sh SH421965 -8.50000 62.0000 -1 -8.50000 62.0000 TC 25 -8.50000 62.0000 1 2 0
1965117S08062 1965 38 SI MM ROSE 1965-04-27 21:00:00 TS -8.60708 62.0000 main 1367 1357 P________PP___ SH421965 -8.60750 62.0000 -1 -8.60750 62.0000 TC 25 -8.60625 62.0000 1 2 172
1965117S08062 1965 38 SI MM ROSE 1965-04-28 00:00:00 TS -8.70000 62.0000 main 1357 1346 O________OP___ jtwc_sh SH421965 -8.70000 62.0000 -1 -8.70000 62.0000 TC 25 -8.70000 62.0000 1 2 0
1965117S08062 1965 38 SI MM ROSE 1965-04-28 03:00:00 TS -8.79292 62.0000 main 1346 1336 P________PP___ SH421965 -8.79250 62.0000 -1 -8.79250 62.0000 TC 25 -8.79375 62.0000 1 2 172
1965117S08062 1965 38 SI MM ROSE 1965-04-28 06:00:00 TS -8.90000 62.0000 main 1336 1325 O________OO___ jtwc_sh SH421965 -8.90000 62.0000 -1 -8.90000 62.0000 TC 25 -8.90000 62.0000 1 3 178
1965117S08062 1965 38 SI MM ROSE 1965-04-28 09:00:00 TS -9.04292 62.0000 main 1325 1304 P________PP___ SH421965 -9.04250 62.0000 -1 -9.04250 62.0000 TC 25 -9.04375 62.0000 1 3 0
1965117S08062 1965 38 SI MM ROSE 1965-04-28 12:00:00 TS -9.20000 62.0000 main 1304 1294 O________OP___ jtwc_sh SH421965 -9.20000 62.0000 -1 -9.20000 62.0000 TC 25 -9.20000 62.0000 1 3 0
1965117S08062 1965 38 SI MM ROSE 1965-04-28 15:00:00 TS -9.35708 62.0000 main 1283 1273 P________PP___ SH421965 -9.35750 62.0000 -1 -9.35750 62.0000 TC 25 -9.35625 62.0000 1 3 0
1965117S08062 1965 38 SI MM ROSE 1965-04-28 18:00:00 TS -9.50000 62.0000 main 1273 1262 O________OO___ jtwc_sh SH421965 -9.50000 62.0000 -1 -9.50000 62.0000 TC 25 -9.50000 62.0000 1 3 178
1965117S08062 1965 38 SI MM ROSE 1965-04-28 21:00:00 TS -9.60708 62.0000 main 1262 1252 P________PP___ SH421965 -9.60750 62.0000 -1 -9.60750 62.0000 TC 25 -9.60625 62.0000 1 2 172
1965117S08062 1965 38 SI MM ROSE 1965-04-29 00:00:00 TS -9.70000 62.0000 main 1252 1241 O________OP___ jtwc_sh SH421965 -9.70000 62.0000 -1 -9.70000 62.0000 TC 25 -9.70000 62.0000 1 2 0
1965117S08062 1965 38 SI MM ROSE 1965-04-29 03:00:00 TS -9.79292 62.0000 main 1241 1231 P________PP___ SH421965 -9.79250 62.0000 -1 -9.79250 62.0000 TC 25 -9.79375 62.0000 1 2 172
1965117S08062 1965 38 SI MM ROSE 1965-04-29 06:00:00 TS -9.90000 62.0000 main 1231 1221 O________OO___ jtwc_sh SH421965 -9.90000 62.0000 -1 -9.90000 62.0000 TC 25 -9.90000 62.0000 1 3 178
1965117S08062 1965 38 SI MM ROSE 1965-04-29 09:00:00 TS -10.0429 62.0000 main 1221 1200 P________PP___ SH421965 -10.0425 62.0000 -1 -10.0425 62.0000 TC 25 -10.0437 62.0000 1 3 0
1965117S08062 1965 38 SI MM ROSE 1965-04-29 12:00:00 TS -10.2000 62.0000 main 1200 1189 O________OP___ jtwc_sh SH421965 -10.2000 62.0000 -1 -10.2000 62.0000 TC 25 -10.2000 62.0000 1 3 0
1965117S08062 1965 38 SI MM ROSE 1965-04-29 15:00:00 TS -10.3571 62.0000 main 1179 1169 P________PP___ SH421965 -10.3575 62.0000 -1 -10.3575 62.0000 TC 25 -10.3563 62.0000 1 3 0
1965117S08062 1965 38 SI MM ROSE 1965-04-29 18:00:00 TS -10.5000 62.0000 main 1169 1158 O________OO___ jtwc_sh SH421965 -10.5000 62.0000 -1 -10.5000 62.0000 TC 25 -10.5000 62.0000 1 3 178
1965117S08062 1965 38 SI MM ROSE 1965-04-29 21:00:00 TS -10.6071 62.0054 main 1158 1148 P________PP___ SH421965 -10.6075 62.0000 -1 -10.6075 62.0000 TC 25 -10.6062 62.0162 1 2 172
1965117S08062 1965 38 SI MM ROSE 1965-04-30 00:00:00 TS -10.7000 62.0100 main 1148 1138 O________OP___ jtwc_sh SH421965 -10.7000 62.0000 -1 -10.7000 62.0000 TC 25 -10.7000 62.0299 1 2 0
1965117S08062 1965 38 SI MM ROSE 1965-04-30 03:00:00 TS -10.7929 62.0146 main 1138 1127 P________PP___ SH421965 -10.7925 62.0075 -1 -10.7925 62.0075 TC 25 -10.7937 62.0287 1 2 188
1965117S08062 1965 38 SI MM ROSE 1965-04-30 06:00:00 TS -10.9000 62.0000 main 1127 1117 O________OO___ jtwc_sh SH421965 -10.9000 62.0000 -1 -10.9000 62.0000 TC 25 -10.9000 62.0000 1 3 193
1965117S08062 1965 38 SI MM ROSE 1965-04-30 09:00:00 TS -11.0402 61.9606 main 1117 1092 P________PP___ SH421965 -11.0425 61.9725 -1 -11.0425 61.9725 TC 25 -11.0356 61.9369 1 3 202
1965117S08062 1965 38 SI MM ROSE 1965-04-30 12:00:00 TS -11.1950 61.8817 main 1092 1078 O________OP___ jtwc_sh SH421965 -11.2000 61.9000 -1 -11.2000 61.9000 TC 25 -11.1850 61.8450 1 4 213
1965117S08062 1965 38 SI MM ROSE 1965-04-30 15:00:00 TS -11.3473 61.7535 main 1078 1048 P________PP___ SH421965 -11.3500 61.7650 -1 -11.3500 61.7650 TC 25 -11.3419 61.7306 1 4 222
1965117S08062 1965 38 SI MM ROSE 1965-04-30 18:00:00 TS -11.5000 61.6000 main 1048 1034 O________OO___ jtwc_sh SH421965 -11.5000 61.6000 -1 -11.5000 61.6000 TC 25 -11.5000 61.6000 1 4 224
1965117S08062 1965 38 SI MM ROSE 1965-04-30 21:00:00 TS -11.6459 61.4575 main 1034 1005 P________PP___ SH421965 -11.6500 61.4500 -1 -11.6500 61.4500 TC 25 -11.6378 61.4724 1 4 224
1965117S08062 1965 38 SI MM ROSE 1965-05-01 00:00:00 TS -11.7925 61.3099 main 1005 990 O________OP___ jtwc_sh SH421965 -11.8000 61.3000 -1 -11.8000 61.3000 TC 25 -11.7775 61.3298 1 4 225
1965117S08062 1965 38 SI MM ROSE 1965-05-01 03:00:00 TS -11.9378 61.1624 main 990 962 P________PP___ SH421965 -11.9425 61.1575 -1 -11.9425 61.1575 TC 25 -11.9284 61.1724 1 4 225
1965117S08062 1965 38 SI MM ROSE 1965-05-01 06:00:00 TS -12.1000 61.0000 main 962 933 O________OO___ jtwc_sh SH421965 -12.1000 61.0000 -1 -12.1000 61.0000 TC 25 -12.1000 61.0000 1 5 225
1965117S08062 1965 38 SI MM ROSE 1965-05-01 09:00:00 TS -12.2912 60.8084 main 933 905 P________PP___ SH421965 -12.2850 60.8075 -1 -12.2850 60.8075 TC 25 -12.3035 60.8104 1 6 223
1965117S08062 1965 38 SI MM ROSE 1965-05-01 12:00:00 TS -12.5092 60.6025 main 905 876 O________OP___ jtwc_sh SH421965 -12.5000 60.6000 -1 -12.5000 60.6000 TC 25 -12.5275 60.6076 1 6 221
1965117S08062 1965 38 SI MM ROSE 1965-05-01 15:00:00 TS -12.7543 60.3953 main 866 838 P________PP___ SH421965 -12.7500 60.3925 -1 -12.7500 60.3925 TC 25 -12.7628 60.4010 1 6 219
1965117S08062 1965 38 SI MM ROSE 1965-05-01 18:00:00 TS -13.0000 60.2000 main 838 813 O________OO___ jtwc_sh SH421965 -13.0000 60.2000 -1 -13.0000 60.2000 TC 25 -13.0000 60.2000 1 6 217
1965117S08062 1965 38 SI MM ROSE 1965-05-01 21:00:00 TS -13.1988 60.0472 main 810 785 P________PP___ SH421965 -13.2000 60.0499 -1 -13.2000 60.0499 TC 25 -13.1964 60.0416 1 5 217
1965117S08062 1965 38 SI MM ROSE 1965-05-02 00:00:00 TS -13.3991 59.8955 main 785 757 O________OP___ jtwc_sh SH421965 -13.4000 59.9000 -1 -13.4000 59.9000 TC 25 -13.3972 59.8866 1 5 217
1965117S08062 1965 38 SI MM ROSE 1965-05-02 03:00:00 TS -13.6265 59.7194 main 757 711 P________PP___ SH421965 -13.6275 59.7224 -1 -13.6275 59.7224 TC 25 -13.6244 59.7134 1 7 201
1965117S08062 1965 38 SI MM ROSE 1965-05-02 06:00:00 TS -14.0286 59.6429 reunion main 711 665 O____O___OO_O_ jtwc_sh SH421965 -13.9000 59.5000 -1 -14.8000 60.5000 3 9.90000 -13.9000 59.5000 TC 25 -13.9000 59.5000 1 -14.8000 60.5000 TC 35 8 198
1965117S08062 1965 38 SI MM ROSE 1965-05-02 09:00:00 TS -14.4104 59.4576 main 665 614 P____P___PP_P_ SH421965 -14.2200 59.2224 -1 -14.9601 60.1674 3 -14.2200 59.2224 TC 25 -14.2417 59.2182 1 -14.9601 60.1674 TC 35 9 209
1965117S08062 1965 38 SI MM ROSE 1965-05-02 12:00:00 TS -14.8073 59.1989 reunion main 614 562 O____O___OP_O_ jtwc_sh SH421965 -14.6000 58.9000 -1 -15.2000 59.8000 99 9.90000 -14.6000 58.9000 TC 25 -14.6327 58.8951 1 -15.2000 59.8000 TC 35 10 214
1965117S08062 1965 38 SI MM ROSE 1965-05-02 15:00:00 TS -15.2484 58.8790 main 562 510 P____P___PP_P_ SH421965 -15.0350 58.5500 -1 -15.5574 59.3727 99 -15.0350 58.5500 TC 25 -15.0573 58.5493 1 -15.5574 59.3727 TC 35 11 219
1965117S08062 1965 38 SI MM ROSE 1965-05-02 18:00:00 TS -15.6600 58.4800 reunion main 499 460 O____O___OO_O_ jtwc_sh SH421965 -15.5000 58.2000 -1 -15.9000 58.9000 99 9.90000 -15.5000 58.2000 TC 25 -15.5000 58.2000 1 -15.9000 58.9000 TC 35 11 226
1965117S08062 1965 38 SI MM ROSE 1965-05-02 21:00:00 TS -15.9865 58.0947 main 460 425 P____P___PP_P_ SH421965 -15.9499 57.8998 -1 -16.0425 58.3995 99 -15.9499 57.8998 TC 25 -15.9477 57.8748 1 -16.0425 58.3995 TC 37 10 228
1965117S08062 1965 38 SI MM ROSE 1965-05-03 00:00:00 TS -16.3215 57.7100 reunion main 425 380 O____O___OP_O_ jtwc_sh SH421965 -16.4000 57.6000 -1 -16.2000 57.9000 99 9.90000 -16.4000 57.6000 TC 25 -16.4073 57.5498 1 -16.2000 57.9000 TC 40 11 224
1965117S08062 1965 38 SI MM ROSE 1965-05-03 03:00:00 TS -16.7496 57.3220 main 380 328 P____P___PP_P_ SH421965 -16.8650 57.2500 -1 -16.5774 57.4426 99 -16.8650 57.2500 TC 25 -16.8633 57.2248 1 -16.5774 57.4426 TC 40 11 221
1965117S08062 1965 38 SI MM ROSE 1965-05-03 06:00:00 TS -17.1800 56.9400 reunion main 330 302 O____O___OO_O_ jtwc_sh SH421965 -17.3000 56.9000 -1 -17.0000 57.0000 3 9.90000 -17.3000 56.9000 TC 25 -17.3000 56.9000 1 -17.0000 57.0000 TC 40 11 222
1965117S08062 1965 38 SI MM ROSE 1965-05-03 09:00:00 TS -17.5312 56.5771 main 305 286 P____P___PP_P_ SH421965 -17.6574 56.5997 -1 -17.3224 56.5498 3 -17.6574 56.5997 TC 25 -17.6962 56.5864 1 -17.3224 56.5498 TC 40 10 226
1965117S08062 1965 38 SI MM ROSE 1965-05-03 12:00:00 TS -17.8544 56.2143 reunion main 281 270 O____O___OP_O_ jtwc_sh SH421965 -18.0000 56.3000 -1 -17.6000 56.1000 99 9.90000 -18.0000 56.3000 TC 25 -18.0720 56.2714 1 -17.6000 56.1000 TC 40 10 227
1965117S08062 1965 38 SI MM ROSE 1965-05-03 15:00:00 TS -18.1843 55.8380 main 277 269 P____P___PP_P_ SH421965 -18.3999 55.9649 -1 -17.8423 55.6572 99 -18.3999 55.9649 TC 25 -18.4368 55.9457 1 -17.8423 55.6572 TC 42 10 228
1965117S08062 1965 38 SI MM ROSE 1965-05-03 18:00:00 TS -18.5200 55.4400 reunion main 279 236 O____O___OO_O_ jtwc_sh SH421965 -18.8000 55.6000 -1 -18.1000 55.2000 99 9.90000 -18.8000 55.6000 TC 25 -18.8000 55.6000 1 -18.1000 55.2000 TC 45 11 229
1965117S08062 1965 38 SI MM ROSE 1965-05-03 21:00:00 TS -18.8821 55.0021 main 236 210 P____P___PP_P_ SH421965 -19.1500 55.2073 -1 -18.4576 54.6853 99 -19.1500 55.2073 TC 25 -19.1952 55.2256 1 -18.4576 54.6853 TC 45 11 229
1965117S08062 1965 38 SI MM ROSE 1965-05-04 00:00:00 TS -19.2375 54.5660 reunion main 214 197 O____O___OP_O_ jtwc_sh SH421965 -19.5000 54.8000 -1 -18.8000 54.2000 99 9.90000 -19.5000 54.8000 TC 25 -19.5873 54.8301 1 -18.8000 54.2000 TC 45 10 229
1965117S08062 1965 38 SI MM ROSE 1965-05-04 03:00:00 TS -19.5520 54.1806 main 194 191 P____P___PP_P_ SH421965 -19.9149 54.4075 -1 -18.9847 53.8344 99 -19.9149 54.4075 TC 25 -19.9608 54.4194 1 -18.9847 53.8344 TC 45 10 229
1965117S08062 1965 38 SI MM ROSE 1965-05-04 06:00:00 TS -19.8600 53.8000 reunion main 198 198 O____O___OO_O_ jtwc_sh SH421965 -20.3000 54.0000 -1 -19.2000 53.5000 3 9.90000 -20.3000 54.0000 TC 25 -20.3000 54.0000 1 -19.2000 53.5000 TC 45 10 230
1965117S08062 1965 38 SI MM ROSE 1965-05-04 09:00:00 TS -20.1871 53.3783 main 212 212 P____P___PP_P_ SH421965 -20.5725 53.5498 -1 -19.6125 53.1076 3 -20.5725 53.5498 TC 25 -20.5655 53.5770 1 -19.6125 53.1076 TC 42 10 230
1965117S08062 1965 38 SI MM ROSE 1965-05-04 12:00:00 TS -20.5200 52.9497 reunion main 248 245 O____O___OP_O_ jtwc_sh SH421965 -20.8000 53.1000 -1 -20.1000 52.7000 99 9.90000 -20.8000 53.1000 TC 25 -20.7998 53.1484 1 -20.1000 52.7000 TC 40 10 230
1965117S08062 1965 38 SI MM ROSE 1965-05-04 15:00:00 TS -20.8437 52.5409 main 282 281 P____P___PP_P_ SH421965 -21.0349 52.6922 -1 -20.5574 52.2998 99 -21.0349 52.6922 TC 25 -21.0342 52.7207 1 -20.5574 52.2998 TC 40 10 229
1965117S08062 1965 38 SI MM ROSE 1965-05-04 18:00:00 TS -21.1800 52.1400 reunion main 321 321 O____O___OO_O_ jtwc_sh SH421965 -21.3000 52.3000 -1 -21.0000 51.9000 99 9.90000 -21.3000 52.3000 TC 25 -21.3000 52.3000 1 -21.0000 51.9000 TC 40 10 227
1965117S08062 1965 38 SI MM ROSE 1965-05-04 21:00:00 TS -21.5381 51.7290 main 343 314 P____P___PP_P_ SH421965 -21.6274 51.8999 -1 -21.4075 51.4774 99 -21.6274 51.8999 TC 25 -21.6206 51.8906 1 -21.4075 51.4774 TC 37 11 227
1965117S08062 1965 38 SI MM ROSE 1965-05-05 00:00:00 TS -21.9038 51.3100 reunion main 314 292 O____O___OP_O_ jtwc_sh SH421965 -22.0000 51.5000 -1 -21.8000 51.1000 99 9.90000 -22.0000 51.5000 TC 25 -21.9881 51.4900 1 -21.8000 51.1000 TC 35 10 224
1965117S08062 1965 38 SI MM ROSE 1965-05-05 03:00:00 TS -22.2780 50.9519 main 293 262 P____P___PP_P_ SH421965 -22.3952 51.1005 -1 -22.1923 50.8420 99 -22.3952 51.1005 TC 25 -22.3866 51.0944 1 -22.1923 50.8420 TC 35 10 220
1965117S08062 1965 38 SI MM ROSE 1965-05-05 06:00:00 TS -22.6545 50.6273 reunion main 266 247 O____O___OO_O_ jtwc_sh SH421965 -22.8000 50.7000 -1 -22.6000 50.6000 3 9.90000 -22.8000 50.7000 TC 25 -22.8000 50.7000 1 -22.6000 50.6000 TC 35 10 221
1965117S08062 1965 38 SI MM ROSE 1965-05-05 09:00:00 TS -23.0126 50.2573 main 252 221 _____P______P_ SH421965 -1 -23.0126 50.2573 3 TC 1 -23.0126 50.2573 TC 32 11 218
1965117S08062 1965 38 SI MM ROSE 1965-05-05 12:00:00 TS -23.5000 49.9000 reunion main 224 201 _____O______O_ -1 -23.5000 49.9000 99 9.90000 1 -23.5000 49.9000 TC 30 13 210
1965117S08062 1965 38 SI MM ROSE 1965-05-05 15:00:00 TS -24.1201 49.5554 main 208 197 _____P______P_ -1 -24.1201 49.5554 99 1 -24.1201 49.5554 TC 30 14 203
1965117S08062 1965 38 SI MM ROSE 1965-05-05 18:00:00 TS -24.8000 49.3000 reunion main 202 199 _____O______O_ -1 -24.8000 49.3000 99 9.90000 -24.8000 49.3000 TC 30 14 196
1965117S08062 1965 38 SI MM ROSE 1965-05-05 21:00:00 TS -25.4197 49.1457 main 205 205 _____P______P_ -1 -25.4197 49.1457 99 -25.4197 49.1457 TC 30 13 184
1965117S08062 1965 38 SI MM ROSE 1965-05-06 00:00:00 TS -26.1000 49.2000 reunion main 243 243 _____O______O_ -1 -26.1000 49.2000 99 9.90000 -26.1000 49.2000 TC 30 15 167
1965117S08062 1965 38 SI MM ROSE 1965-05-06 03:00:00 TS -26.9106 49.5202 main 320 320 _____P______P_ -1 -26.9106 49.5202 99 -26.9106 49.5202 TC 30 19 157
1965117S08062 1965 38 SI MM ROSE 1965-05-06 06:00:00 ET -27.8000 50.0000 reunion main 424 _____O______O_ -1 -27.8000 50.0000 5 9.90000 -27.8000 50.0000 EX 30 20 155

About IBTrACS Database

This database is a web-friendly format of International Best Track Archive for Climate Stewardship (IBTrACS), a global best track data archive curated by NOAA dating back to 1842.

Updated: 2021-10-21